createdAt,value
2022-11-02T00:00:25.536Z,91.55
2022-11-02T00:03:12.369Z,91.38
2022-11-02T00:05:39.452Z,91.51
2022-11-02T00:08:06.550Z,91.45
2022-11-02T00:10:33.368Z,91.27
2022-11-02T00:13:00.464Z,91.33
2022-11-02T00:15:31.805Z,91.44
2022-11-02T00:20:31.463Z,91.34
2022-11-02T00:23:02.705Z,91.16
2022-11-02T00:25:31.066Z,90.98
2022-11-02T00:27:58.319Z,90.71
2022-11-02T00:30:25.371Z,90.89
2022-11-02T00:32:53.167Z,91.12
2022-11-02T00:35:20.272Z,90.80
2022-11-02T00:37:47.205Z,90.90
2022-11-02T00:40:14.832Z,90.83
2022-11-02T00:42:41.696Z,90.85
2022-11-02T00:45:10.758Z,90.79
2022-11-02T00:47:38.040Z,90.79
2022-11-02T00:50:05.302Z,90.71
2022-11-02T00:52:32.776Z,90.69
2022-11-02T00:55:00.109Z,90.71
2022-11-02T00:57:27.712Z,90.74
2022-11-02T00:59:54.832Z,90.61
2022-11-02T01:02:21.836Z,90.76
2022-11-02T01:04:48.837Z,90.78
2022-11-02T01:07:15.749Z,90.73
2022-11-02T01:09:42.620Z,90.84
2022-11-02T01:12:09.743Z,90.95
2022-11-02T01:14:37.759Z,90.80
2022-11-02T01:17:04.865Z,90.85
2022-11-02T01:19:31.776Z,90.52
2022-11-02T01:21:58.881Z,90.56
2022-11-02T01:24:25.825Z,90.58
2022-11-02T01:26:54.204Z,90.54
2022-11-02T01:29:21.584Z,90.62
2022-11-02T01:31:48.643Z,90.50
2022-11-02T01:34:17.692Z,90.28
2022-11-02T01:36:48.112Z,90.36
2022-11-02T01:39:17.645Z,90.34
2022-11-02T01:41:45.261Z,90.21
2022-11-02T01:44:30.187Z,90.25
2022-11-02T01:47:00.683Z,90.12
2022-11-02T01:49:29.030Z,90.18
2022-11-02T01:52:04.179Z,90.06
2022-11-02T01:54:38.003Z,89.88
2022-11-02T01:57:07.910Z,90.04
2022-11-02T01:59:40.554Z,89.80
2022-11-02T02:02:12.843Z,89.80
2022-11-02T02:04:40.359Z,89.98
2022-11-02T02:07:07.158Z,90.04
2022-11-02T02:09:35.965Z,90.31
2022-11-02T02:12:02.829Z,90.21
2022-11-02T02:14:29.901Z,90.32
2022-11-02T02:17:09.195Z,90.35
2022-11-02T02:19:49.388Z,90.65
2022-11-02T02:22:54.455Z,90.63
2022-11-02T02:25:48.102Z,90.83
2022-11-02T02:28:21.183Z,90.90
2022-11-02T02:30:52.460Z,91.19
2022-11-02T02:33:28.330Z,91.14
2022-11-02T02:36:00.825Z,91.43
2022-11-02T02:38:33.840Z,91.37
2022-11-02T02:41:11.129Z,91.43
2022-11-02T02:43:43.159Z,91.66
2022-11-02T02:46:14.699Z,91.82
2022-11-02T02:48:44.944Z,91.98
2022-11-02T02:51:16.913Z,92.15
2022-11-02T02:53:48.455Z,92.32
2022-11-02T02:56:20.061Z,92.54
2022-11-02T02:58:52.847Z,92.55
2022-11-02T03:01:21.057Z,92.73
2022-11-02T03:03:48.312Z,92.98
2022-11-02T03:06:21.202Z,93.01
2022-11-02T03:09:04.923Z,93.12
2022-11-02T03:11:33.949Z,93.21
2022-11-02T03:14:22.912Z,93.32
2022-11-02T03:17:04.350Z,93.42
2022-11-02T03:19:43.222Z,93.54
2022-11-02T03:22:22.994Z,93.62
2022-11-02T03:25:00.337Z,93.76
2022-11-02T03:27:36.874Z,93.91
2022-11-02T03:30:09.698Z,94.06
2022-11-02T03:32:42.171Z,94.10
2022-11-02T03:35:16.669Z,94.10
2022-11-02T03:37:48.012Z,94.39
2022-11-02T03:40:20.372Z,94.43
2022-11-02T03:42:49.368Z,94.48
2022-11-02T03:45:19.943Z,94.66
2022-11-02T03:47:53.316Z,94.73
2022-11-02T03:50:24.491Z,94.65
2022-11-02T03:52:55.506Z,94.59
2022-11-02T03:55:27.299Z,94.73
2022-11-02T03:57:55.371Z,94.66
2022-11-02T04:00:29.222Z,94.59
2022-11-02T04:03:04.024Z,94.58
2022-11-02T04:05:34.355Z,94.44
2022-11-02T04:08:24.612Z,94.23
2022-11-02T04:11:14.375Z,94.16
2022-11-02T04:14:00.072Z,94.03
2022-11-02T04:16:28.608Z,94.03
2022-11-02T04:19:13.728Z,94.25
2022-11-02T04:21:41.411Z,94.21
2022-11-02T04:24:26.949Z,94.18
2022-11-02T04:26:53.788Z,94.23
2022-11-02T04:29:20.836Z,94.27
2022-11-02T04:31:48.172Z,94.30
2022-11-02T04:34:15.212Z,94.22
2022-11-02T04:36:42.193Z,94.24
2022-11-02T04:39:09.566Z,94.22
2022-11-02T04:41:42.649Z,94.10
2022-11-02T04:44:16.142Z,94.28
2022-11-02T04:46:46.719Z,94.37
2022-11-02T04:49:14.414Z,94.16
2022-11-02T04:51:45.763Z,94.18
2022-11-02T04:54:16.192Z,94.29
2022-11-02T04:56:43.707Z,94.59
2022-11-02T04:59:11.541Z,94.50
2022-11-02T05:01:38.773Z,94.52
2022-11-02T05:04:06.327Z,94.31
2022-11-02T05:06:37.378Z,94.17
2022-11-02T05:09:06.184Z,94.09
2022-11-02T05:11:33.303Z,94.12
2022-11-02T05:14:00.647Z,94.06
2022-11-02T05:16:28.564Z,94.08
2022-11-02T05:18:55.466Z,94.16
2022-11-02T05:21:23.322Z,94.26
2022-11-02T05:23:50.518Z,94.38
2022-11-02T05:26:17.680Z,94.51
2022-11-02T05:28:46.780Z,94.66
2022-11-02T05:31:13.799Z,94.85
2022-11-02T05:33:40.767Z,95.09
2022-11-02T05:36:12.773Z,95.14
2022-11-02T05:38:40.916Z,95.39
2022-11-02T05:41:08.533Z,95.68
2022-11-02T05:43:36.511Z,95.77
2022-11-02T05:46:05.643Z,95.79
2022-11-02T05:48:33.868Z,95.76
2022-11-02T05:51:03.365Z,95.89
2022-11-02T05:53:32.705Z,96.11
2022-11-02T05:56:02.272Z,96.17
2022-11-02T05:58:29.616Z,96.29
2022-11-02T06:00:59.750Z,96.39
2022-11-02T06:03:26.888Z,96.61
2022-11-02T06:06:00.912Z,96.66
2022-11-02T06:08:28.545Z,96.69
2022-11-02T06:10:55.382Z,96.75
2022-11-02T06:13:22.383Z,96.75
2022-11-02T06:15:49.201Z,96.85
2022-11-02T06:18:15.972Z,96.88
2022-11-02T06:20:42.844Z,96.92
2022-11-02T06:23:09.706Z,96.89
2022-11-02T06:25:36.613Z,96.83
2022-11-02T06:28:03.459Z,96.61
2022-11-02T06:30:30.370Z,96.45
2022-11-02T06:32:58.684Z,96.31
2022-11-02T06:35:28.462Z,96.40
2022-11-02T06:37:55.501Z,96.39
2022-11-02T06:40:25.646Z,96.60
2022-11-02T06:45:46.907Z,95.81
2022-11-02T06:48:13.940Z,95.75
2022-11-02T06:50:40.828Z,95.35
2022-11-02T06:53:07.856Z,95.02
2022-11-02T06:55:34.832Z,95.12
2022-11-02T06:58:01.731Z,95.06
2022-11-02T07:00:29.703Z,94.84
2022-11-02T07:03:04.291Z,94.41
2022-11-02T07:05:31.940Z,94.23
2022-11-02T07:07:59.349Z,94.22
2022-11-02T07:10:26.834Z,94.10
2022-11-02T07:12:56.298Z,93.96
2022-11-02T07:15:24.275Z,93.96
2022-11-02T07:17:51.913Z,93.50
2022-11-02T07:20:19.452Z,93.17
2022-11-02T07:22:55.177Z,93.22
2022-11-02T07:25:22.300Z,93.14
2022-11-02T07:27:49.171Z,93.06
2022-11-02T07:30:16.770Z,93.42
2022-11-02T07:32:44.584Z,92.95
2022-11-02T07:35:13.514Z,92.71
2022-11-02T07:37:41.050Z,92.30
2022-11-02T07:40:10.720Z,92.16
2022-11-02T07:42:37.671Z,91.25
2022-11-02T07:45:07.165Z,90.50
2022-11-02T07:47:34.055Z,89.70
2022-11-02T07:50:02.192Z,87.16
2022-11-02T07:52:29.403Z,85.91
2022-11-02T07:54:56.866Z,84.50
2022-11-02T07:57:23.760Z,83.20
2022-11-02T07:59:50.743Z,82.00
2022-11-02T08:02:17.711Z,81.67
2022-11-02T08:04:45.225Z,80.77
2022-11-02T08:07:13.292Z,79.86
2022-11-02T08:09:40.218Z,78.92
2022-11-02T08:12:12.075Z,77.65
2022-11-02T08:14:38.955Z,76.80
2022-11-02T08:17:06.267Z,76.99
2022-11-02T08:19:33.273Z,77.06
2022-11-02T08:22:00.351Z,77.13
2022-11-02T08:24:27.222Z,77.05
2022-11-02T08:26:55.016Z,77.44
2022-11-02T08:29:22.124Z,77.34
2022-11-02T08:31:50.612Z,77.50
2022-11-02T08:34:17.619Z,77.47
2022-11-02T08:36:44.822Z,77.93
2022-11-02T08:39:17.515Z,78.25
2022-11-02T08:41:45.732Z,78.28
2022-11-02T08:44:12.599Z,78.31
2022-11-02T08:46:39.792Z,78.36
2022-11-02T08:49:06.752Z,78.41
2022-11-02T08:51:33.708Z,78.52
2022-11-02T08:54:00.635Z,78.74
2022-11-02T08:56:27.551Z,79.36
2022-11-02T08:58:54.582Z,78.96
2022-11-02T09:01:23.597Z,78.71
2022-11-02T09:03:50.533Z,78.63
2022-11-02T09:06:17.613Z,78.43
2022-11-02T09:08:44.874Z,78.74
2022-11-02T09:11:12.398Z,78.71
2022-11-02T09:13:40.639Z,78.54
2022-11-02T09:16:09.810Z,78.43
2022-11-02T09:18:36.817Z,78.55
2022-11-02T09:21:05.943Z,79.09
2022-11-02T09:23:33.453Z,79.31
2022-11-02T09:26:01.423Z,79.89
2022-11-02T09:28:28.641Z,80.11
2022-11-02T09:30:55.781Z,80.27
2022-11-02T09:33:25.261Z,80.49
2022-11-02T09:35:52.312Z,80.36
2022-11-02T09:38:19.893Z,80.14
2022-11-02T09:40:52.892Z,80.24
2022-11-02T09:43:32.643Z,80.47
2022-11-02T09:46:03.396Z,80.03
2022-11-02T09:48:36.356Z,80.09
2022-11-02T09:51:08.753Z,80.20
2022-11-02T09:53:49.917Z,80.17
2022-11-02T09:56:20.629Z,80.31
2022-11-02T09:58:54.543Z,80.33
2022-11-02T10:01:34.513Z,80.58
2022-11-02T10:04:21.565Z,80.86
2022-11-02T10:06:56.854Z,81.20
2022-11-02T10:09:29.382Z,81.51
2022-11-02T10:12:03.333Z,81.69
2022-11-02T10:14:36.796Z,81.90
2022-11-02T10:17:13.592Z,81.96
2022-11-02T10:19:45.164Z,82.09
2022-11-02T10:22:16.200Z,82.22
2022-11-02T10:24:45.290Z,82.36
2022-11-02T10:27:21.228Z,82.54
2022-11-02T10:29:59.206Z,82.47
2022-11-02T10:32:26.433Z,82.68
2022-11-02T10:34:58.966Z,82.60
2022-11-02T10:37:49.412Z,82.56
2022-11-02T10:40:32.772Z,82.42
2022-11-02T10:43:14.911Z,82.41
2022-11-02T10:46:03.397Z,82.45
2022-11-02T10:48:39.493Z,82.23
2022-11-02T10:51:12.454Z,82.10
2022-11-02T10:53:43.357Z,82.37
2022-11-02T10:56:16.691Z,82.49
2022-11-02T10:58:51.175Z,82.61
2022-11-02T11:01:18.764Z,82.45
2022-11-02T11:04:00.350Z,82.32
2022-11-02T11:06:28.935Z,81.96
2022-11-02T11:09:02.307Z,81.68
2022-11-02T11:11:31.976Z,81.04
2022-11-02T11:16:53.264Z,80.64
2022-11-02T11:22:29.752Z,80.48
2022-11-02T11:25:16.704Z,79.42
2022-11-02T11:27:48.614Z,78.41
2022-11-02T11:30:54.012Z,78.61
2022-11-02T11:33:23.078Z,78.37
2022-11-02T11:35:53.504Z,77.79
2022-11-02T11:38:23.917Z,76.84
2022-11-02T11:40:54.337Z,76.19
2022-11-02T11:43:23.455Z,76.05
2022-11-02T11:46:05.302Z,76.01
2022-11-02T11:48:39.111Z,75.90
2022-11-02T11:51:24.396Z,75.62
2022-11-02T11:54:18.230Z,75.70
2022-11-02T11:56:45.195Z,75.50
2022-11-02T11:59:24.555Z,75.78
2022-11-02T12:01:53.284Z,75.91
2022-11-02T12:04:30.817Z,76.23
2022-11-02T12:07:07.859Z,76.43
2022-11-02T12:09:37.143Z,76.69
2022-11-02T12:12:14.166Z,76.77
2022-11-02T12:14:46.663Z,76.72
2022-11-02T12:17:27.656Z,77.18
2022-11-02T12:20:12.200Z,77.01
2022-11-02T12:22:50.991Z,76.65
2022-11-02T12:25:41.813Z,76.35
2022-11-02T12:28:23.956Z,76.09
2022-11-02T12:31:02.591Z,75.76
2022-11-02T12:33:44.240Z,75.66
2022-11-02T12:36:20.863Z,75.15
2022-11-02T12:38:58.029Z,75.20
2022-11-02T12:41:39.067Z,75.06
2022-11-02T12:44:18.427Z,75.07
2022-11-02T12:46:53.794Z,74.32
2022-11-02T12:49:36.032Z,74.05
2022-11-02T12:52:14.484Z,74.14
2022-11-02T12:54:46.972Z,74.31
2022-11-02T12:57:18.447Z,74.04
2022-11-02T12:59:47.640Z,73.61
2022-11-02T13:02:19.909Z,73.29
2022-11-02T13:04:52.538Z,73.22
2022-11-02T13:07:27.189Z,72.98
2022-11-02T13:10:02.033Z,72.65
2022-11-02T13:12:31.911Z,72.13
2022-11-02T13:15:02.235Z,72.09
2022-11-02T13:17:37.074Z,71.86
2022-11-02T13:20:14.479Z,71.95
2022-11-02T13:22:44.098Z,71.69
2022-11-02T13:25:20.826Z,71.27
2022-11-02T13:27:52.984Z,71.29
2022-11-02T13:30:21.044Z,71.55
2022-11-02T13:32:51.247Z,70.69
2022-11-02T13:35:23.888Z,70.34
2022-11-02T13:37:54.621Z,70.44
2022-11-02T13:40:26.732Z,70.63
2022-11-02T13:43:30.489Z,70.95
2022-11-02T13:46:14.909Z,71.16
2022-11-02T13:48:52.603Z,71.23
2022-11-02T13:51:30.149Z,71.44
2022-11-02T13:54:02.168Z,71.45
2022-11-02T13:56:31.190Z,71.27
2022-11-02T13:59:01.970Z,71.81
2022-11-02T14:01:33.007Z,71.93
2022-11-02T14:04:04.034Z,71.92
2022-11-02T14:06:33.329Z,71.67
2022-11-02T14:09:03.458Z,72.08
2022-11-02T14:11:37.798Z,72.21
2022-11-02T14:14:22.844Z,72.49
2022-11-02T14:17:13.031Z,72.79
2022-11-02T14:19:55.096Z,72.89
2022-11-02T14:22:23.517Z,73.21
2022-11-02T14:25:18.837Z,73.44
2022-11-02T14:27:46.104Z,73.59
2022-11-02T14:30:46.734Z,74.28
2022-11-02T14:33:33.333Z,74.10
2022-11-02T14:36:06.012Z,74.16
2022-11-02T14:38:53.843Z,74.19
2022-11-02T14:41:47.215Z,74.54
2022-11-02T14:44:35.104Z,74.75
2022-11-02T14:47:09.803Z,74.80
2022-11-02T14:49:41.141Z,75.03
2022-11-02T14:52:23.948Z,75.28
2022-11-02T14:54:54.679Z,75.43
2022-11-02T14:57:28.717Z,75.58
2022-11-02T14:59:59.102Z,75.69
2022-11-02T15:02:31.262Z,75.78
2022-11-02T15:05:00.648Z,75.96
2022-11-02T15:07:35.957Z,76.38
2022-11-02T15:10:04.197Z,76.46
2022-11-02T15:12:35.988Z,76.43
2022-11-02T15:15:07.733Z,76.55
2022-11-02T15:17:59.675Z,76.60
2022-11-02T15:20:34.698Z,76.77
2022-11-02T15:23:31.429Z,76.88
2022-11-02T15:26:01.679Z,77.05
2022-11-02T15:28:33.793Z,77.33
2022-11-02T15:31:05.710Z,77.49
2022-11-02T15:33:39.904Z,77.62
2022-11-02T15:36:10.135Z,77.97
2022-11-02T15:38:40.185Z,78.17
2022-11-02T15:41:19.658Z,78.23
2022-11-02T15:43:59.120Z,78.25
2022-11-02T15:46:44.357Z,78.40
2022-11-02T15:49:24.048Z,78.77
2022-11-02T15:51:57.788Z,78.93
2022-11-02T15:54:49.745Z,78.96
2022-11-02T15:57:25.749Z,79.29
2022-11-02T16:00:13.323Z,79.34
2022-11-02T16:02:41.111Z,79.39
2022-11-02T16:05:17.190Z,79.45
2022-11-02T16:08:05.216Z,79.74
2022-11-02T16:10:34.603Z,79.87
2022-11-02T16:13:11.860Z,79.92
2022-11-02T16:15:42.223Z,79.94
2022-11-02T16:18:22.770Z,80.07
2022-11-02T16:20:49.794Z,80.22
2022-11-02T16:23:24.315Z,80.40
2022-11-02T16:25:54.780Z,80.69
2022-11-02T16:28:24.512Z,80.98
2022-11-02T16:31:14.418Z,81.20
2022-11-02T16:33:44.803Z,81.36
2022-11-02T16:36:13.775Z,81.39
2022-11-02T16:38:46.847Z,81.51
2022-11-02T16:41:17.609Z,81.46
2022-11-02T16:43:47.852Z,81.33
2022-11-02T16:46:18.337Z,81.29
2022-11-02T16:49:09.386Z,81.17
2022-11-02T16:51:36.784Z,80.92
2022-11-02T16:54:27.170Z,80.78
2022-11-02T16:56:56.813Z,80.52
2022-11-02T16:59:25.646Z,80.34
2022-11-02T17:01:58.452Z,79.95
2022-11-02T17:04:27.681Z,79.53
2022-11-02T17:06:56.880Z,79.53
2022-11-02T17:09:28.329Z,79.21
2022-11-02T17:11:58.002Z,79.12
2022-11-02T17:14:26.631Z,78.83
2022-11-02T17:17:09.481Z,78.76
2022-11-02T17:19:57.765Z,78.60
2022-11-02T17:22:30.337Z,78.54
2022-11-02T17:25:14.521Z,78.62
2022-11-02T17:27:43.008Z,78.70
2022-11-02T17:30:48.358Z,78.78
2022-11-02T17:33:25.039Z,78.85
2022-11-02T17:35:53.840Z,78.98
2022-11-02T17:38:22.468Z,79.07
2022-11-02T17:40:52.295Z,79.27
2022-11-02T17:43:19.295Z,79.29
2022-11-02T17:45:54.371Z,79.47
2022-11-02T17:48:21.367Z,79.57
2022-11-02T17:50:53.144Z,79.55
2022-11-02T17:53:20.105Z,79.25
2022-11-02T17:55:47.007Z,79.45
2022-11-02T17:58:15.380Z,79.20
2022-11-02T18:00:42.871Z,78.99
2022-11-02T18:03:17.504Z,78.85
2022-11-02T18:05:48.521Z,78.59
2022-11-02T18:08:17.267Z,78.40
2022-11-02T18:10:46.052Z,78.41
2022-11-02T18:13:14.754Z,77.97
2022-11-02T18:15:42.218Z,77.89
2022-11-02T18:18:09.538Z,77.94
2022-11-02T18:20:41.558Z,77.92
2022-11-02T18:23:15.070Z,77.51
2022-11-02T18:25:41.992Z,77.45
2022-11-02T18:28:09.180Z,77.39
2022-11-02T18:30:36.455Z,77.18
2022-11-02T18:33:03.779Z,76.92
2022-11-02T18:35:30.696Z,76.93
2022-11-02T18:37:57.745Z,76.86
2022-11-02T18:40:25.146Z,76.88
2022-11-02T18:42:52.556Z,76.81
2022-11-02T18:45:19.906Z,76.71
2022-11-02T18:47:47.013Z,76.56
2022-11-02T18:50:15.138Z,76.37
2022-11-02T18:52:49.650Z,76.35
2022-11-02T18:55:21.182Z,76.35
2022-11-02T18:57:50.969Z,76.25
2022-11-02T19:00:18.975Z,76.12
2022-11-02T19:02:46.301Z,76.09
2022-11-02T19:05:27.215Z,76.15
2022-11-02T19:08:11.924Z,76.03
2022-11-02T19:10:38.863Z,76.07
2022-11-02T19:13:06.063Z,75.98
2022-11-02T19:15:39.783Z,75.90
2022-11-02T19:18:10.487Z,75.91
2022-11-02T19:20:37.401Z,75.89
2022-11-02T19:23:04.258Z,75.97
2022-11-02T19:25:31.276Z,75.92
2022-11-02T19:27:58.240Z,75.99
2022-11-02T19:30:25.253Z,75.97
2022-11-02T19:32:52.218Z,76.05
2022-11-02T19:35:21.375Z,76.19
2022-11-02T19:37:48.339Z,76.40
2022-11-02T19:40:18.182Z,76.47
2022-11-02T19:42:49.865Z,76.59
2022-11-02T19:45:17.923Z,76.56
2022-11-02T19:47:45.090Z,76.76
2022-11-02T19:50:12.559Z,76.80
2022-11-02T19:52:39.485Z,76.92
2022-11-02T19:55:07.038Z,76.90
2022-11-02T19:57:33.987Z,76.96
2022-11-02T20:00:00.872Z,77.11
2022-11-02T20:02:27.889Z,77.33
2022-11-02T20:04:54.919Z,77.33
2022-11-02T20:07:21.926Z,77.44
2022-11-02T20:09:49.007Z,77.45
2022-11-02T20:12:15.862Z,77.66
2022-11-02T20:14:42.755Z,77.70
2022-11-02T20:17:30.255Z,77.68
2022-11-02T20:19:56.500Z,77.83
2022-11-02T20:22:23.656Z,77.77
2022-11-02T20:24:50.658Z,77.94
2022-11-02T20:27:17.840Z,78.09
2022-11-02T20:29:44.882Z,78.16
2022-11-02T20:32:12.670Z,78.26
2022-11-02T20:34:39.834Z,78.35
2022-11-02T20:37:07.638Z,78.38
2022-11-02T20:39:35.194Z,78.56
2022-11-02T20:42:02.250Z,78.64
2022-11-02T20:44:29.357Z,78.69
2022-11-02T20:46:57.530Z,78.57
2022-11-02T20:49:54.363Z,78.73
2022-11-02T20:52:12.825Z,78.78
2022-11-02T20:54:40.039Z,78.86
2022-11-02T20:57:07.609Z,78.88
2022-11-02T20:59:34.425Z,78.94
2022-11-02T21:02:01.484Z,79.00
2022-11-02T21:04:28.572Z,78.93
2022-11-02T21:06:55.528Z,78.84
2022-11-02T21:09:24.515Z,78.99
2022-11-02T21:12:09.545Z,79.04
2022-11-02T21:14:36.595Z,78.97
2022-11-02T21:17:05.597Z,78.98
2022-11-02T21:19:32.573Z,79.05
2022-11-02T21:22:00.673Z,79.03
2022-11-02T21:24:28.019Z,78.93
2022-11-02T21:26:54.936Z,78.93
2022-11-02T21:29:22.706Z,78.90
2022-11-02T21:31:49.947Z,78.91
2022-11-02T21:34:17.516Z,78.92
2022-11-02T21:36:44.527Z,78.93
2022-11-02T21:39:11.614Z,78.96
2022-11-02T21:41:39.635Z,79.01
2022-11-02T21:44:07.838Z,79.04
2022-11-02T21:46:35.122Z,79.15
2022-11-02T21:49:03.191Z,79.06
2022-11-02T21:51:30.335Z,79.16
2022-11-02T21:53:57.382Z,79.18
2022-11-02T21:56:26.700Z,79.27
2022-11-02T21:58:54.231Z,79.29
2022-11-02T22:01:48.684Z,79.40
2022-11-02T22:04:19.520Z,79.37
2022-11-02T22:06:49.212Z,79.47
2022-11-02T22:09:16.410Z,79.53
2022-11-02T22:11:45.078Z,79.62
2022-11-02T22:14:12.430Z,79.68
2022-11-02T22:16:41.171Z,79.82
2022-11-02T22:19:10.003Z,79.85
2022-11-02T22:21:40.081Z,79.95
2022-11-02T22:24:08.110Z,80.01
2022-11-02T22:26:39.371Z,80.11
2022-11-02T22:29:07.253Z,80.23
2022-11-02T22:31:35.879Z,80.22
2022-11-02T22:34:04.938Z,80.30
2022-11-02T22:36:34.217Z,80.30
2022-11-02T22:39:02.559Z,80.42
2022-11-02T22:41:30.909Z,80.32
2022-11-02T22:43:59.062Z,80.17
2022-11-02T22:46:28.502Z,80.30
2022-11-02T22:48:57.103Z,80.18
2022-11-02T22:51:27.856Z,80.28
2022-11-02T22:53:55.951Z,80.33
2022-11-02T22:56:24.530Z,80.16
2022-11-02T22:58:52.448Z,80.21
2022-11-02T23:01:21.484Z,80.13
2022-11-02T23:03:50.586Z,80.09
2022-11-02T23:06:21.345Z,80.05
2022-11-02T23:08:49.148Z,79.99
2022-11-02T23:11:23.862Z,80.07
2022-11-02T23:13:52.680Z,79.97
2022-11-02T23:16:23.929Z,80.01
2022-11-02T23:19:10.945Z,80.09
2022-11-02T23:21:38.710Z,80.12
2022-11-02T23:24:23.805Z,80.09
2022-11-02T23:26:50.828Z,79.99
2022-11-02T23:29:31.522Z,79.88
2022-11-02T23:32:16.580Z,79.86
2022-11-02T23:35:03.983Z,79.59
2022-11-02T23:37:31.667Z,79.58
2022-11-02T23:39:58.800Z,79.52
2022-11-02T23:42:28.099Z,79.63
2022-11-02T23:44:57.438Z,79.49
2022-11-02T23:47:44.992Z,79.50
2022-11-02T23:50:35.628Z,79.52
2022-11-02T23:53:20.137Z,79.41
2022-11-02T23:56:07.451Z,79.47
2022-11-02T23:58:34.504Z,79.37
